sensor_id;sensor_type;location;lat;lon;timestamp;temperature;humidity
12268;DHT22;6196;48.398;11.736;2023-07-22T00:01:34;14.60;99.90
12268;DHT22;6196;48.398;11.736;2023-07-22T00:04:01;14.60;99.90
12268;DHT22;6196;48.398;11.736;2023-07-22T00:06:28;14.60;99.90
12268;DHT22;6196;48.398;11.736;2023-07-22T00:08:55;14.50;99.90
12268;DHT22;6196;48.398;11.736;2023-07-22T00:11:22;14.40;99.90
12268;DHT22;6196;48.398;11.736;2023-07-22T00:13:49;14.40;99.90
12268;DHT22;6196;48.398;11.736;2023-07-22T00:16:16;14.30;99.90
12268;DHT22;6196;48.398;11.736;2023-07-22T00:18:44;14.30;99.90
12268;DHT22;6196;48.398;11.736;2023-07-22T00:21:11;14.20;99.90
12268;DHT22;6196;48.398;11.736;2023-07-22T00:23:38;14.10;99.90
12268;DHT22;6196;48.398;11.736;2023-07-22T00:26:05;14.10;99.90
12268;DHT22;6196;48.398;11.736;2023-07-22T00:28:32;14.00;99.90
12268;DHT22;6196;48.398;11.736;2023-07-22T00:30:58;14.00;99.90
12268;DHT22;6196;48.398;11.736;2023-07-22T00:33:27;14.00;99.90
12268;DHT22;6196;48.398;11.736;2023-07-22T00:35:54;13.90;99.90
12268;DHT22;6196;48.398;11.736;2023-07-22T00:38:22;13.80;99.90
12268;DHT22;6196;48.398;11.736;2023-07-22T00:40:48;13.80;99.90
12268;DHT22;6196;48.398;11.736;2023-07-22T00:43:15;13.70;99.90
12268;DHT22;6196;48.398;11.736;2023-07-22T00:45:43;13.70;99.90
12268;DHT22;6196;48.398;11.736;2023-07-22T00:48:10;13.70;99.90
12268;DHT22;6196;48.398;11.736;2023-07-22T00:50:38;13.70;99.90
12268;DHT22;6196;48.398;11.736;2023-07-22T00:53:05;13.60;99.90
12268;DHT22;6196;48.398;11.736;2023-07-22T00:55:33;13.60;99.90
12268;DHT22;6196;48.398;11.736;2023-07-22T00:58:02;13.50;99.90
12268;DHT22;6196;48.398;11.736;2023-07-22T01:00:29;13.50;99.90
12268;DHT22;6196;48.398;11.736;2023-07-22T01:02:56;13.40;99.90
12268;DHT22;6196;48.398;11.736;2023-07-22T01:05:23;13.40;99.90
12268;DHT22;6196;48.398;11.736;2023-07-22T01:07:51;13.40;99.90
12268;DHT22;6196;48.398;11.736;2023-07-22T01:10:21;13.40;99.90
12268;DHT22;6196;48.398;11.736;2023-07-22T01:12:48;13.40;99.90
12268;DHT22;6196;48.398;11.736;2023-07-22T01:15:15;13.20;99.90
12268;DHT22;6196;48.398;11.736;2023-07-22T01:17:42;13.30;99.90
12268;DHT22;6196;48.398;11.736;2023-07-22T01:20:11;13.20;99.90
12268;DHT22;6196;48.398;11.736;2023-07-22T01:22:39;13.20;99.90
12268;DHT22;6196;48.398;11.736;2023-07-22T01:25:08;13.20;99.90
12268;DHT22;6196;48.398;11.736;2023-07-22T01:27:35;13.10;99.90
12268;DHT22;6196;48.398;11.736;2023-07-22T01:30:02;13.00;99.90
12268;DHT22;6196;48.398;11.736;2023-07-22T01:32:30;13.00;99.90
12268;DHT22;6196;48.398;11.736;2023-07-22T01:34:58;12.90;99.90
12268;DHT22;6196;48.398;11.736;2023-07-22T01:37:25;12.90;99.90
12268;DHT22;6196;48.398;11.736;2023-07-22T01:39:52;12.90;99.90
12268;DHT22;6196;48.398;11.736;2023-07-22T01:42:19;12.80;99.90
12268;DHT22;6196;48.398;11.736;2023-07-22T01:44:46;12.80;99.90
12268;DHT22;6196;48.398;11.736;2023-07-22T01:47:13;12.80;99.90
12268;DHT22;6196;48.398;11.736;2023-07-22T01:49:40;12.80;99.90
12268;DHT22;6196;48.398;11.736;2023-07-22T01:52:07;12.70;99.90
12268;DHT22;6196;48.398;11.736;2023-07-22T01:54:34;12.70;99.90
12268;DHT22;6196;48.398;11.736;2023-07-22T01:57:01;12.60;99.90
12268;DHT22;6196;48.398;11.736;2023-07-22T01:59:28;12.50;99.90
12268;DHT22;6196;48.398;11.736;2023-07-22T02:01:55;12.50;99.90
12268;DHT22;6196;48.398;11.736;2023-07-22T02:04:22;12.50;99.90
12268;DHT22;6196;48.398;11.736;2023-07-22T02:06:49;12.50;99.90
12268;DHT22;6196;48.398;11.736;2023-07-22T02:09:16;12.40;99.90
12268;DHT22;6196;48.398;11.736;2023-07-22T02:11:43;12.30;99.90
12268;DHT22;6196;48.398;11.736;2023-07-22T02:14:10;12.30;99.90
12268;DHT22;6196;48.398;11.736;2023-07-22T02:16:37;12.30;99.90
12268;DHT22;6196;48.398;11.736;2023-07-22T02:19:04;12.20;99.90
12268;DHT22;6196;48.398;11.736;2023-07-22T02:21:31;12.10;99.90
12268;DHT22;6196;48.398;11.736;2023-07-22T02:23:59;12.00;99.90
12268;DHT22;6196;48.398;11.736;2023-07-22T02:26:26;11.90;99.90
12268;DHT22;6196;48.398;11.736;2023-07-22T02:28:53;11.90;99.90
12268;DHT22;6196;48.398;11.736;2023-07-22T02:31:21;11.90;99.90
12268;DHT22;6196;48.398;11.736;2023-07-22T02:33:49;11.90;99.90
12268;DHT22;6196;48.398;11.736;2023-07-22T02:36:16;11.80;99.90
12268;DHT22;6196;48.398;11.736;2023-07-22T02:38:43;11.80;99.90
12268;DHT22;6196;48.398;11.736;2023-07-22T02:41:10;11.70;99.90
12268;DHT22;6196;48.398;11.736;2023-07-22T02:43:37;11.70;99.90
12268;DHT22;6196;48.398;11.736;2023-07-22T02:46:06;11.60;99.90
12268;DHT22;6196;48.398;11.736;2023-07-22T02:48:36;11.70;99.90
12268;DHT22;6196;48.398;11.736;2023-07-22T02:51:08;11.70;99.90
12268;DHT22;6196;48.398;11.736;2023-07-22T02:53:35;11.80;99.90
12268;DHT22;6196;48.398;11.736;2023-07-22T02:56:05;11.80;99.90
12268;DHT22;6196;48.398;11.736;2023-07-22T02:58:37;11.80;99.90
12268;DHT22;6196;48.398;11.736;2023-07-22T03:01:04;11.90;99.90
12268;DHT22;6196;48.398;11.736;2023-07-22T03:03:32;11.90;99.90
12268;DHT22;6196;48.398;11.736;2023-07-22T03:06:00;11.90;99.90
12268;DHT22;6196;48.398;11.736;2023-07-22T03:08:27;11.90;99.90
12268;DHT22;6196;48.398;11.736;2023-07-22T03:10:54;12.00;99.90
12268;DHT22;6196;48.398;11.736;2023-07-22T03:13:21;11.90;99.90
12268;DHT22;6196;48.398;11.736;2023-07-22T03:15:48;12.00;99.90
12268;DHT22;6196;48.398;11.736;2023-07-22T03:18:15;11.90;99.90
12268;DHT22;6196;48.398;11.736;2023-07-22T03:20:42;11.80;99.90
12268;DHT22;6196;48.398;11.736;2023-07-22T03:23:09;11.80;99.90
12268;DHT22;6196;48.398;11.736;2023-07-22T03:25:36;11.70;99.90
12268;DHT22;6196;48.398;11.736;2023-07-22T03:28:05;11.70;99.90
12268;DHT22;6196;48.398;11.736;2023-07-22T03:30:33;11.60;99.90
12268;DHT22;6196;48.398;11.736;2023-07-22T03:33:00;11.70;99.90
12268;DHT22;6196;48.398;11.736;2023-07-22T03:35:27;11.60;99.90
12268;DHT22;6196;48.398;11.736;2023-07-22T03:37:55;11.50;99.90
12268;DHT22;6196;48.398;11.736;2023-07-22T03:40:22;11.50;99.90
12268;DHT22;6196;48.398;11.736;2023-07-22T03:42:57;11.60;99.90
12268;DHT22;6196;48.398;11.736;2023-07-22T03:45:24;11.70;99.90
12268;DHT22;6196;48.398;11.736;2023-07-22T03:47:56;11.80;99.90
12268;DHT22;6196;48.398;11.736;2023-07-22T03:50:24;11.80;99.90
12268;DHT22;6196;48.398;11.736;2023-07-22T03:52:52;11.90;99.90
12268;DHT22;6196;48.398;11.736;2023-07-22T03:55:19;12.00;99.90
12268;DHT22;6196;48.398;11.736;2023-07-22T03:57:46;12.00;99.90
12268;DHT22;6196;48.398;11.736;2023-07-22T04:00:13;12.10;99.90
12268;DHT22;6196;48.398;11.736;2023-07-22T04:02:40;12.10;99.90
12268;DHT22;6196;48.398;11.736;2023-07-22T04:05:09;12.00;99.90
12268;DHT22;6196;48.398;11.736;2023-07-22T04:07:37;12.10;99.90
12268;DHT22;6196;48.398;11.736;2023-07-22T04:10:04;12.00;99.90
12268;DHT22;6196;48.398;11.736;2023-07-22T04:12:32;12.10;99.90
12268;DHT22;6196;48.398;11.736;2023-07-22T04:14:59;12.10;99.90
12268;DHT22;6196;48.398;11.736;2023-07-22T04:17:25;12.20;99.90
12268;DHT22;6196;48.398;11.736;2023-07-22T04:19:52;12.10;99.90
12268;DHT22;6196;48.398;11.736;2023-07-22T04:22:20;12.10;99.90
12268;DHT22;6196;48.398;11.736;2023-07-22T04:24:48;12.00;99.90
12268;DHT22;6196;48.398;11.736;2023-07-22T04:27:16;12.00;99.90
12268;DHT22;6196;48.398;11.736;2023-07-22T04:29:43;12.00;99.90
12268;DHT22;6196;48.398;11.736;2023-07-22T04:32:10;12.20;99.90
12268;DHT22;6196;48.398;11.736;2023-07-22T04:34:37;12.20;99.90
12268;DHT22;6196;48.398;11.736;2023-07-22T04:37:04;12.40;99.90
12268;DHT22;6196;48.398;11.736;2023-07-22T04:39:32;12.50;99.90
12268;DHT22;6196;48.398;11.736;2023-07-22T04:41:59;12.60;99.90
12268;DHT22;6196;48.398;11.736;2023-07-22T04:44:26;12.60;99.90
12268;DHT22;6196;48.398;11.736;2023-07-22T04:46:53;12.70;99.90
12268;DHT22;6196;48.398;11.736;2023-07-22T04:49:21;12.80;99.90
12268;DHT22;6196;48.398;11.736;2023-07-22T04:51:48;12.90;99.90
12268;DHT22;6196;48.398;11.736;2023-07-22T04:54:17;12.90;99.90
12268;DHT22;6196;48.398;11.736;2023-07-22T04:56:44;13.00;99.90
12268;DHT22;6196;48.398;11.736;2023-07-22T04:59:11;13.10;99.90
12268;DHT22;6196;48.398;11.736;2023-07-22T05:01:40;13.20;99.90
12268;DHT22;6196;48.398;11.736;2023-07-22T05:04:07;13.30;99.90
12268;DHT22;6196;48.398;11.736;2023-07-22T05:06:34;13.40;99.90
12268;DHT22;6196;48.398;11.736;2023-07-22T05:09:02;13.50;99.90
12268;DHT22;6196;48.398;11.736;2023-07-22T05:11:30;13.60;99.90
12268;DHT22;6196;48.398;11.736;2023-07-22T05:13:57;13.90;99.90
12268;DHT22;6196;48.398;11.736;2023-07-22T05:16:24;13.90;99.90
12268;DHT22;6196;48.398;11.736;2023-07-22T05:18:52;14.10;99.90
12268;DHT22;6196;48.398;11.736;2023-07-22T05:21:19;14.10;99.90
12268;DHT22;6196;48.398;11.736;2023-07-22T05:23:46;14.20;99.90
12268;DHT22;6196;48.398;11.736;2023-07-22T05:26:12;14.30;99.90
12268;DHT22;6196;48.398;11.736;2023-07-22T05:28:39;14.40;99.90
12268;DHT22;6196;48.398;11.736;2023-07-22T05:31:06;14.40;99.90
12268;DHT22;6196;48.398;11.736;2023-07-22T05:33:34;14.40;99.90
12268;DHT22;6196;48.398;11.736;2023-07-22T05:36:00;14.60;99.90
12268;DHT22;6196;48.398;11.736;2023-07-22T05:38:27;14.70;99.90
12268;DHT22;6196;48.398;11.736;2023-07-22T05:40:54;14.80;99.90
12268;DHT22;6196;48.398;11.736;2023-07-22T05:43:22;14.90;99.90
12268;DHT22;6196;48.398;11.736;2023-07-22T05:45:49;15.00;99.90
12268;DHT22;6196;48.398;11.736;2023-07-22T05:48:16;15.20;99.90
12268;DHT22;6196;48.398;11.736;2023-07-22T05:50:43;15.20;99.90
12268;DHT22;6196;48.398;11.736;2023-07-22T05:53:10;15.20;99.90
12268;DHT22;6196;48.398;11.736;2023-07-22T05:55:37;15.30;99.90
12268;DHT22;6196;48.398;11.736;2023-07-22T05:58:04;15.10;99.90
12268;DHT22;6196;48.398;11.736;2023-07-22T06:00:34;15.30;99.90
12268;DHT22;6196;48.398;11.736;2023-07-22T06:03:01;15.60;99.90
12268;DHT22;6196;48.398;11.736;2023-07-22T06:05:29;15.70;99.90
12268;DHT22;6196;48.398;11.736;2023-07-22T06:07:56;16.00;99.90
12268;DHT22;6196;48.398;11.736;2023-07-22T06:10:24;16.40;99.90
12268;DHT22;6196;48.398;11.736;2023-07-22T06:12:51;16.80;99.90
12268;DHT22;6196;48.398;11.736;2023-07-22T06:15:18;17.20;99.90
12268;DHT22;6196;48.398;11.736;2023-07-22T06:17:45;17.50;99.90
12268;DHT22;6196;48.398;11.736;2023-07-22T06:20:12;17.70;99.90
12268;DHT22;6196;48.398;11.736;2023-07-22T06:22:40;18.00;99.90
12268;DHT22;6196;48.398;11.736;2023-07-22T06:25:07;18.40;99.90
12268;DHT22;6196;48.398;11.736;2023-07-22T06:27:35;18.60;99.90
12268;DHT22;6196;48.398;11.736;2023-07-22T06:30:02;18.30;99.90
12268;DHT22;6196;48.398;11.736;2023-07-22T06:32:29;18.10;99.90
12268;DHT22;6196;48.398;11.736;2023-07-22T06:34:57;18.20;99.90
12268;DHT22;6196;48.398;11.736;2023-07-22T06:37:25;18.10;99.90
12268;DHT22;6196;48.398;11.736;2023-07-22T06:39:52;18.50;99.90
12268;DHT22;6196;48.398;11.736;2023-07-22T06:42:19;18.40;99.90
12268;DHT22;6196;48.398;11.736;2023-07-22T06:44:47;18.70;99.90
12268;DHT22;6196;48.398;11.736;2023-07-22T06:47:14;18.80;99.90
12268;DHT22;6196;48.398;11.736;2023-07-22T06:49:41;19.30;99.90
12268;DHT22;6196;48.398;11.736;2023-07-22T06:52:13;19.80;99.90
12268;DHT22;6196;48.398;11.736;2023-07-22T06:54:40;20.40;99.90
12268;DHT22;6196;48.398;11.736;2023-07-22T06:57:07;20.90;99.90
12268;DHT22;6196;48.398;11.736;2023-07-22T06:59:35;20.90;99.90
12268;DHT22;6196;48.398;11.736;2023-07-22T07:02:03;21.30;99.90
12268;DHT22;6196;48.398;11.736;2023-07-22T07:04:31;21.60;99.90
12268;DHT22;6196;48.398;11.736;2023-07-22T07:06:58;21.80;99.90
12268;DHT22;6196;48.398;11.736;2023-07-22T07:09:26;21.90;99.90
12268;DHT22;6196;48.398;11.736;2023-07-22T07:11:53;22.00;99.90
12268;DHT22;6196;48.398;11.736;2023-07-22T07:14:24;21.90;99.90
12268;DHT22;6196;48.398;11.736;2023-07-22T07:16:51;21.60;99.90
12268;DHT22;6196;48.398;11.736;2023-07-22T07:19:18;21.50;99.90
12268;DHT22;6196;48.398;11.736;2023-07-22T07:21:45;21.40;99.90
12268;DHT22;6196;48.398;11.736;2023-07-22T07:24:12;21.40;99.90
12268;DHT22;6196;48.398;11.736;2023-07-22T07:26:39;21.80;99.90
12268;DHT22;6196;48.398;11.736;2023-07-22T07:29:06;21.60;99.90
12268;DHT22;6196;48.398;11.736;2023-07-22T07:31:33;21.80;99.90
12268;DHT22;6196;48.398;11.736;2023-07-22T07:34:01;22.20;99.90
12268;DHT22;6196;48.398;11.736;2023-07-22T07:36:28;22.40;99.90
12268;DHT22;6196;48.398;11.736;2023-07-22T07:38:55;22.50;99.90
12268;DHT22;6196;48.398;11.736;2023-07-22T07:41:22;22.70;99.90
12268;DHT22;6196;48.398;11.736;2023-07-22T07:43:49;23.20;99.90
12268;DHT22;6196;48.398;11.736;2023-07-22T07:46:20;23.00;99.90
12268;DHT22;6196;48.398;11.736;2023-07-22T07:48:50;23.30;99.90
12268;DHT22;6196;48.398;11.736;2023-07-22T07:51:19;23.50;99.90
12268;DHT22;6196;48.398;11.736;2023-07-22T07:53:47;23.90;99.90
12268;DHT22;6196;48.398;11.736;2023-07-22T07:56:15;23.90;99.90
12268;DHT22;6196;48.398;11.736;2023-07-22T07:58:44;24.00;99.90
12268;DHT22;6196;48.398;11.736;2023-07-22T08:01:11;24.00;99.90
12268;DHT22;6196;48.398;11.736;2023-07-22T08:03:39;23.70;99.90
12268;DHT22;6196;48.398;11.736;2023-07-22T08:06:09;23.30;99.90
12268;DHT22;6196;48.398;11.736;2023-07-22T08:08:37;23.00;99.90
12268;DHT22;6196;48.398;11.736;2023-07-22T08:13:35;23.20;99.90
12268;DHT22;6196;48.398;11.736;2023-07-22T08:16:04;23.30;99.90
12268;DHT22;6196;48.398;11.736;2023-07-22T08:18:34;24.00;99.90
12268;DHT22;6196;48.398;11.736;2023-07-22T08:21:05;24.50;99.90
12268;DHT22;6196;48.398;11.736;2023-07-22T08:23:37;24.70;99.90
12268;DHT22;6196;48.398;11.736;2023-07-22T08:26:04;24.60;99.90
12268;DHT22;6196;48.398;11.736;2023-07-22T08:28:33;24.40;99.90
12268;DHT22;6196;48.398;11.736;2023-07-22T08:31:00;24.80;99.90
12268;DHT22;6196;48.398;11.736;2023-07-22T08:33:28;25.30;99.90
12268;DHT22;6196;48.398;11.736;2023-07-22T08:36:08;25.40;99.90
12268;DHT22;6196;48.398;11.736;2023-07-22T08:38:35;24.60;99.90
12268;DHT22;6196;48.398;11.736;2023-07-22T08:41:02;24.60;99.90
12268;DHT22;6196;48.398;11.736;2023-07-22T08:43:30;24.90;99.90
12268;DHT22;6196;48.398;11.736;2023-07-22T08:46:00;24.90;99.90
12268;DHT22;6196;48.398;11.736;2023-07-22T08:48:30;25.30;99.90
12268;DHT22;6196;48.398;11.736;2023-07-22T08:51:06;24.80;99.90
12268;DHT22;6196;48.398;11.736;2023-07-22T08:53:37;24.70;99.90
12268;DHT22;6196;48.398;11.736;2023-07-22T08:56:04;24.50;99.90
12268;DHT22;6196;48.398;11.736;2023-07-22T08:58:32;24.30;99.90
12268;DHT22;6196;48.398;11.736;2023-07-22T09:01:02;24.60;99.90
12268;DHT22;6196;48.398;11.736;2023-07-22T09:03:29;24.20;99.70
12268;DHT22;6196;48.398;11.736;2023-07-22T09:05:56;24.10;99.90
12268;DHT22;6196;48.398;11.736;2023-07-22T09:08:23;24.00;99.90
12268;DHT22;6196;48.398;11.736;2023-07-22T09:10:50;24.30;99.90
12268;DHT22;6196;48.398;11.736;2023-07-22T09:13:19;24.70;99.90
12268;DHT22;6196;48.398;11.736;2023-07-22T09:15:47;24.90;99.60
12268;DHT22;6196;48.398;11.736;2023-07-22T09:18:17;25.30;99.90
12268;DHT22;6196;48.398;11.736;2023-07-22T09:20:44;26.00;99.10
12268;DHT22;6196;48.398;11.736;2023-07-22T09:23:12;25.20;98.80
12268;DHT22;6196;48.398;11.736;2023-07-22T09:25:42;24.90;99.60
12268;DHT22;6196;48.398;11.736;2023-07-22T09:28:10;25.10;99.60
12268;DHT22;6196;48.398;11.736;2023-07-22T09:30:39;25.40;99.30
12268;DHT22;6196;48.398;11.736;2023-07-22T09:33:20;25.90;99.90
12268;DHT22;6196;48.398;11.736;2023-07-22T09:35:49;25.20;97.70
12268;DHT22;6196;48.398;11.736;2023-07-22T09:38:23;25.40;98.50
12268;DHT22;6196;48.398;11.736;2023-07-22T09:40:52;25.60;98.10
12268;DHT22;6196;48.398;11.736;2023-07-22T09:43:21;25.60;96.60
12268;DHT22;6196;48.398;11.736;2023-07-22T09:45:50;26.30;97.20
12268;DHT22;6196;48.398;11.736;2023-07-22T09:48:17;26.60;97.40
12268;DHT22;6196;48.398;11.736;2023-07-22T09:50:44;25.90;94.40
12268;DHT22;6196;48.398;11.736;2023-07-22T09:53:15;25.90;96.20
12268;DHT22;6196;48.398;11.736;2023-07-22T09:55:43;25.80;94.90
12268;DHT22;6196;48.398;11.736;2023-07-22T09:58:10;26.20;95.80
12268;DHT22;6196;48.398;11.736;2023-07-22T10:00:45;26.40;94.70
12268;DHT22;6196;48.398;11.736;2023-07-22T10:03:16;26.50;93.50
12268;DHT22;6196;48.398;11.736;2023-07-22T10:05:46;25.80;94.00
12268;DHT22;6196;48.398;11.736;2023-07-22T10:08:18;25.50;95.00
12268;DHT22;6196;48.398;11.736;2023-07-22T10:10:46;25.60;94.70
12268;DHT22;6196;48.398;11.736;2023-07-22T10:13:13;25.90;94.50
12268;DHT22;6196;48.398;11.736;2023-07-22T10:15:42;26.30;94.50
12268;DHT22;6196;48.398;11.736;2023-07-22T10:18:09;26.40;94.00
12268;DHT22;6196;48.398;11.736;2023-07-22T10:20:38;25.20;93.80
12268;DHT22;6196;48.398;11.736;2023-07-22T10:23:07;24.80;94.80
12268;DHT22;6196;48.398;11.736;2023-07-22T10:25:39;25.00;95.60
12268;DHT22;6196;48.398;11.736;2023-07-22T10:28:06;25.30;96.00
12268;DHT22;6196;48.398;11.736;2023-07-22T10:30:33;26.10;94.90
12268;DHT22;6196;48.398;11.736;2023-07-22T10:33:01;26.30;95.40
12268;DHT22;6196;48.398;11.736;2023-07-22T10:38:16;26.10;93.70
12268;DHT22;6196;48.398;11.736;2023-07-22T10:40:49;26.40;95.10
12268;DHT22;6196;48.398;11.736;2023-07-22T10:43:27;27.30;93.30
12268;DHT22;6196;48.398;11.736;2023-07-22T10:45:58;27.80;93.90
12268;DHT22;6196;48.398;11.736;2023-07-22T10:48:37;28.10;92.00
12268;DHT22;6196;48.398;11.736;2023-07-22T10:51:13;27.40;92.20
12268;DHT22;6196;48.398;11.736;2023-07-22T10:53:48;26.50;93.20
12268;DHT22;6196;48.398;11.736;2023-07-22T10:56:21;26.40;91.10
12268;DHT22;6196;48.398;11.736;2023-07-22T11:01:32;26.60;92.10
12268;DHT22;6196;48.398;11.736;2023-07-22T11:06:33;27.00;92.20
12268;DHT22;6196;48.398;11.736;2023-07-22T11:09:01;27.30;92.60
12268;DHT22;6196;48.398;11.736;2023-07-22T11:11:38;27.10;90.40
12268;DHT22;6196;48.398;11.736;2023-07-22T11:14:22;27.80;90.60
12268;DHT22;6196;48.398;11.736;2023-07-22T11:16:51;28.00;89.50
12268;DHT22;6196;48.398;11.736;2023-07-22T11:19:23;27.80;91.30
12268;DHT22;6196;48.398;11.736;2023-07-22T11:21:52;27.20;87.00
12268;DHT22;6196;48.398;11.736;2023-07-22T11:24:22;26.80;90.90
12268;DHT22;6196;48.398;11.736;2023-07-22T11:26:50;26.70;91.30
12268;DHT22;6196;48.398;11.736;2023-07-22T11:29:18;27.00;90.00
12268;DHT22;6196;48.398;11.736;2023-07-22T11:31:48;27.30;90.50
12268;DHT22;6196;48.398;11.736;2023-07-22T11:36:52;27.50;89.80
12268;DHT22;6196;48.398;11.736;2023-07-22T11:39:22;28.30;87.80
12268;DHT22;6196;48.398;11.736;2023-07-22T11:41:51;28.80;85.90
12268;DHT22;6196;48.398;11.736;2023-07-22T11:44:20;28.80;88.60
12268;DHT22;6196;48.398;11.736;2023-07-22T11:46:59;28.80;86.40
12268;DHT22;6196;48.398;11.736;2023-07-22T11:49:35;28.10;86.10
12268;DHT22;6196;48.398;11.736;2023-07-22T11:52:07;27.80;89.40
12268;DHT22;6196;48.398;11.736;2023-07-22T11:54:40;28.40;90.00
12268;DHT22;6196;48.398;11.736;2023-07-22T11:59:48;28.50;85.10
12268;DHT22;6196;48.398;11.736;2023-07-22T12:02:24;28.10;86.30
12268;DHT22;6196;48.398;11.736;2023-07-22T12:04:56;28.00;87.50
12268;DHT22;6196;48.398;11.736;2023-07-22T12:07:27;28.40;86.80
12268;DHT22;6196;48.398;11.736;2023-07-22T12:10:06;29.10;83.40
12268;DHT22;6196;48.398;11.736;2023-07-22T12:12:35;28.20;83.20
12268;DHT22;6196;48.398;11.736;2023-07-22T12:15:22;27.90;84.20
12268;DHT22;6196;48.398;11.736;2023-07-22T12:17:59;27.40;85.30
12268;DHT22;6196;48.398;11.736;2023-07-22T12:20:32;27.80;84.90
12268;DHT22;6196;48.398;11.736;2023-07-22T12:23:00;27.60;86.50
12268;DHT22;6196;48.398;11.736;2023-07-22T12:25:27;28.10;89.10
12268;DHT22;6196;48.398;11.736;2023-07-22T12:27:54;29.00;88.20
12268;DHT22;6196;48.398;11.736;2023-07-22T12:30:21;29.00;82.20
12268;DHT22;6196;48.398;11.736;2023-07-22T12:32:48;29.00;85.10
12268;DHT22;6196;48.398;11.736;2023-07-22T12:35:16;28.50;82.70
12268;DHT22;6196;48.398;11.736;2023-07-22T12:37:43;28.10;86.10
12268;DHT22;6196;48.398;11.736;2023-07-22T12:40:11;28.60;85.40
12268;DHT22;6196;48.398;11.736;2023-07-22T12:42:39;29.20;85.20
12268;DHT22;6196;48.398;11.736;2023-07-22T12:45:07;28.30;81.30
12268;DHT22;6196;48.398;11.736;2023-07-22T12:47:35;27.70;80.50
12268;DHT22;6196;48.398;11.736;2023-07-22T12:50:03;28.40;81.60
12268;DHT22;6196;48.398;11.736;2023-07-22T12:52:31;28.60;83.10
12268;DHT22;6196;48.398;11.736;2023-07-22T12:54:57;28.70;79.90
12268;DHT22;6196;48.398;11.736;2023-07-22T12:57:24;28.00;80.90
12268;DHT22;6196;48.398;11.736;2023-07-22T12:59:51;28.50;85.00
12268;DHT22;6196;48.398;11.736;2023-07-22T13:02:18;28.50;80.50
12268;DHT22;6196;48.398;11.736;2023-07-22T13:04:45;28.60;80.90
12268;DHT22;6196;48.398;11.736;2023-07-22T13:07:12;29.10;80.50
12268;DHT22;6196;48.398;11.736;2023-07-22T13:09:39;29.20;80.60
12268;DHT22;6196;48.398;11.736;2023-07-22T13:12:07;28.70;82.50
12268;DHT22;6196;48.398;11.736;2023-07-22T13:14:35;28.90;79.50
12268;DHT22;6196;48.398;11.736;2023-07-22T13:17:05;29.60;78.70
12268;DHT22;6196;48.398;11.736;2023-07-22T13:19:33;29.50;76.90
12268;DHT22;6196;48.398;11.736;2023-07-22T13:22:00;29.60;78.60
12268;DHT22;6196;48.398;11.736;2023-07-22T13:24:27;30.20;78.80
12268;DHT22;6196;48.398;11.736;2023-07-22T13:26:54;29.40;76.00
12268;DHT22;6196;48.398;11.736;2023-07-22T13:29:20;29.30;77.60
12268;DHT22;6196;48.398;11.736;2023-07-22T13:31:47;29.10;78.20
12268;DHT22;6196;48.398;11.736;2023-07-22T13:34:14;28.90;77.30
12268;DHT22;6196;48.398;11.736;2023-07-22T13:36:42;28.90;79.00
12268;DHT22;6196;48.398;11.736;2023-07-22T13:39:09;28.70;76.30
12268;DHT22;6196;48.398;11.736;2023-07-22T13:41:35;28.40;77.20
12268;DHT22;6196;48.398;11.736;2023-07-22T13:44:03;28.90;76.60
12268;DHT22;6196;48.398;11.736;2023-07-22T13:46:30;28.90;76.50
12268;DHT22;6196;48.398;11.736;2023-07-22T13:48:58;28.60;79.10
12268;DHT22;6196;48.398;11.736;2023-07-22T13:51:25;28.70;78.70
12268;DHT22;6196;48.398;11.736;2023-07-22T13:53:52;29.60;77.50
12268;DHT22;6196;48.398;11.736;2023-07-22T13:56:21;29.80;75.30
12268;DHT22;6196;48.398;11.736;2023-07-22T13:58:48;30.10;75.10
12268;DHT22;6196;48.398;11.736;2023-07-22T14:01:16;30.60;74.40
12268;DHT22;6196;48.398;11.736;2023-07-22T14:03:43;30.50;72.80
12268;DHT22;6196;48.398;11.736;2023-07-22T14:06:10;29.50;75.70
12268;DHT22;6196;48.398;11.736;2023-07-22T14:08:37;29.90;76.10
12268;DHT22;6196;48.398;11.736;2023-07-22T14:11:05;30.00;74.40
12268;DHT22;6196;48.398;11.736;2023-07-22T14:13:32;30.20;74.50
12268;DHT22;6196;48.398;11.736;2023-07-22T14:15:59;30.50;76.50
12268;DHT22;6196;48.398;11.736;2023-07-22T14:18:46;31.10;74.80
12268;DHT22;6196;48.398;11.736;2023-07-22T14:21:13;30.80;70.30
12268;DHT22;6196;48.398;11.736;2023-07-22T14:23:40;29.90;73.50
12268;DHT22;6196;48.398;11.736;2023-07-22T14:26:07;30.20;73.10
12268;DHT22;6196;48.398;11.736;2023-07-22T14:28:33;29.70;74.20
12268;DHT22;6196;48.398;11.736;2023-07-22T14:31:00;28.80;74.90
12268;DHT22;6196;48.398;11.736;2023-07-22T14:33:27;29.00;76.90
12268;DHT22;6196;48.398;11.736;2023-07-22T14:35:55;29.80;78.90
12268;DHT22;6196;48.398;11.736;2023-07-22T14:38:22;29.70;71.30
12268;DHT22;6196;48.398;11.736;2023-07-22T14:40:49;30.40;72.60
12268;DHT22;6196;48.398;11.736;2023-07-22T14:43:16;30.70;72.90
12268;DHT22;6196;48.398;11.736;2023-07-22T14:45:46;30.50;74.10
12268;DHT22;6196;48.398;11.736;2023-07-22T14:48:13;30.90;76.40
12268;DHT22;6196;48.398;11.736;2023-07-22T14:50:40;30.60;73.70
12268;DHT22;6196;48.398;11.736;2023-07-22T14:53:07;30.40;73.20
12268;DHT22;6196;48.398;11.736;2023-07-22T14:55:33;30.70;75.90
12268;DHT22;6196;48.398;11.736;2023-07-22T14:58:00;30.40;72.10
12268;DHT22;6196;48.398;11.736;2023-07-22T15:00:27;30.20;73.10
12268;DHT22;6196;48.398;11.736;2023-07-22T15:02:54;30.10;72.40
12268;DHT22;6196;48.398;11.736;2023-07-22T15:05:21;29.00;72.80
12268;DHT22;6196;48.398;11.736;2023-07-22T15:07:49;29.60;76.90
12268;DHT22;6196;48.398;11.736;2023-07-22T15:10:16;29.60;72.90
12268;DHT22;6196;48.398;11.736;2023-07-22T15:12:43;30.30;73.50
12268;DHT22;6196;48.398;11.736;2023-07-22T15:15:11;29.80;71.20
12268;DHT22;6196;48.398;11.736;2023-07-22T15:17:39;30.20;74.00
12268;DHT22;6196;48.398;11.736;2023-07-22T15:20:06;30.10;72.90
12268;DHT22;6196;48.398;11.736;2023-07-22T15:22:34;30.00;71.90
12268;DHT22;6196;48.398;11.736;2023-07-22T15:25:02;30.00;72.60
12268;DHT22;6196;48.398;11.736;2023-07-22T15:27:30;30.00;74.50
12268;DHT22;6196;48.398;11.736;2023-07-22T15:29:57;29.90;71.90
12268;DHT22;6196;48.398;11.736;2023-07-22T15:32:24;30.00;70.90
12268;DHT22;6196;48.398;11.736;2023-07-22T15:34:51;30.20;71.70
12268;DHT22;6196;48.398;11.736;2023-07-22T15:37:18;30.10;73.50
12268;DHT22;6196;48.398;11.736;2023-07-22T15:39:45;30.20;72.50
12268;DHT22;6196;48.398;11.736;2023-07-22T15:42:12;30.00;73.60
12268;DHT22;6196;48.398;11.736;2023-07-22T15:44:39;29.70;72.00
12268;DHT22;6196;48.398;11.736;2023-07-22T15:47:06;30.00;71.70
12268;DHT22;6196;48.398;11.736;2023-07-22T15:49:33;29.50;73.00
12268;DHT22;6196;48.398;11.736;2023-07-22T15:52:01;29.90;72.40